createdAt,value
2022-08-04T00:02:16.229Z,3.17
2022-08-04T00:05:07.214Z,3.58
2022-08-04T00:08:12.249Z,3.22
2022-08-04T00:10:44.700Z,3.17
2022-08-04T00:13:12.428Z,3.63
2022-08-04T00:15:40.330Z,3.40
2022-08-04T00:18:17.749Z,3.33
2022-08-04T00:20:45.917Z,3.50
2022-08-04T00:23:14.526Z,3.60
2022-08-04T00:25:42.153Z,3.13
2022-08-04T00:28:09.741Z,3.78
2022-08-04T00:30:37.431Z,3.28
2022-08-04T00:33:04.920Z,3.10
2022-08-04T00:35:33.320Z,3.05
2022-08-04T00:38:01.669Z,4.00
2022-08-04T00:40:40.660Z,3.55
2022-08-04T00:43:28.583Z,3.55
2022-08-04T00:46:36.695Z,3.28
2022-08-04T00:49:42.877Z,2.97
2022-08-04T00:52:46.954Z,3.30
2022-08-04T00:55:35.746Z,3.70
2022-08-04T00:58:27.062Z,3.78
2022-08-04T01:01:20.497Z,4.10
2022-08-04T01:04:27.468Z,3.03
2022-08-04T01:07:49.904Z,3.58
2022-08-04T01:10:41.003Z,3.47
2022-08-04T01:13:48.461Z,3.10
2022-08-04T01:16:18.387Z,3.30
2022-08-04T01:19:01.042Z,3.75
2022-08-04T01:21:47.189Z,3.47
2022-08-04T01:24:48.039Z,3.30
2022-08-04T01:27:59.954Z,3.22
2022-08-04T01:30:28.783Z,3.17
2022-08-04T01:33:09.873Z,2.70
2022-08-04T01:35:56.407Z,3.60
2022-08-04T01:38:30.527Z,2.95
2022-08-04T01:41:06.896Z,3.10
2022-08-04T01:43:41.222Z,3.08
2022-08-04T01:46:17.367Z,2.97
2022-08-04T01:48:47.888Z,3.42
2022-08-04T01:51:15.458Z,2.65
2022-08-04T01:53:44.827Z,2.97
2022-08-04T01:56:13.437Z,2.80
2022-08-04T01:58:41.705Z,3.35
2022-08-04T02:01:12.916Z,3.10
2022-08-04T02:04:20.715Z,3.42
2022-08-04T02:07:45.097Z,3.20
2022-08-04T02:10:28.239Z,3.85
2022-08-04T02:13:26.044Z,2.95
2022-08-04T02:16:17.206Z,3.65
2022-08-04T02:19:31.761Z,3.28
2022-08-04T02:22:16.460Z,3.28
2022-08-04T02:24:50.147Z,3.50
2022-08-04T02:27:29.670Z,3.00
2022-08-04T02:30:19.661Z,3.30
2022-08-04T02:32:49.344Z,3.53
2022-08-04T02:35:27.793Z,4.03
2022-08-04T02:38:38.613Z,3.30
2022-08-04T02:41:09.334Z,3.03
2022-08-04T02:43:50.764Z,3.47
2022-08-04T02:46:22.269Z,2.90
2022-08-04T02:48:56.035Z,3.40
2022-08-04T02:51:45.417Z,3.40
2022-08-04T02:54:31.554Z,3.13
2022-08-04T02:57:02.684Z,2.95
2022-08-04T03:00:00.593Z,2.77
2022-08-04T03:03:03.378Z,3.28
2022-08-04T03:06:27.861Z,3.35
2022-08-04T03:09:49.498Z,3.42
2022-08-04T03:13:08.929Z,3.33
2022-08-04T03:15:51.112Z,3.35
2022-08-04T03:19:20.081Z,3.20
2022-08-04T03:22:53.935Z,3.65
2022-08-04T03:26:03.322Z,3.25
2022-08-04T03:29:35.926Z,4.55
2022-08-04T03:32:45.189Z,3.47
2022-08-04T03:35:42.525Z,2.83
2022-08-04T03:38:27.742Z,3.10
2022-08-04T03:42:03.614Z,3.20
2022-08-04T03:44:56.016Z,3.22
2022-08-04T03:47:54.421Z,3.13
2022-08-04T03:50:47.101Z,2.80
2022-08-04T03:54:01.382Z,3.00
2022-08-04T03:56:40.106Z,2.88
2022-08-04T03:59:55.601Z,2.70
2022-08-04T04:03:04.324Z,2.95
2022-08-04T04:06:05.500Z,2.67
2022-08-04T04:09:20.524Z,2.95
2022-08-04T04:12:45.690Z,2.90
2022-08-04T04:15:37.141Z,2.70
2022-08-04T04:18:13.347Z,2.63
2022-08-04T04:21:14.535Z,2.50
2022-08-04T04:24:07.392Z,3.30
2022-08-04T04:27:11.227Z,3.38
2022-08-04T04:30:05.950Z,3.90
2022-08-04T04:32:59.782Z,2.70
2022-08-04T04:36:02.468Z,2.83
2022-08-04T04:38:44.189Z,2.60
2022-08-04T04:42:12.765Z,2.60
2022-08-04T04:45:19.949Z,2.90
2022-08-04T04:48:10.891Z,2.90
2022-08-04T04:51:09.884Z,2.95
2022-08-04T04:54:35.052Z,2.63
2022-08-04T04:57:22.718Z,2.72
2022-08-04T05:00:13.785Z,2.60
2022-08-04T05:03:19.152Z,2.70
2022-08-04T05:06:15.234Z,2.50
2022-08-04T05:09:44.142Z,2.90
2022-08-04T05:14:35.656Z,3.38
2022-08-04T05:16:33.070Z,2.72
2022-08-04T05:19:45.397Z,2.80
2022-08-04T05:22:31.694Z,3.00
2022-08-04T05:25:35.371Z,3.00
2022-08-04T05:28:17.675Z,3.08
2022-08-04T05:31:01.889Z,2.63
2022-08-04T05:33:48.609Z,2.83
2022-08-04T05:36:40.187Z,2.75
2022-08-04T05:39:19.694Z,2.70
2022-08-04T05:41:55.762Z,2.80
2022-08-04T05:44:28.468Z,3.25
2022-08-04T05:46:58.768Z,3.03
2022-08-04T05:49:29.679Z,3.33
2022-08-04T05:52:03.202Z,2.95
2022-08-04T05:54:35.929Z,2.88
2022-08-04T05:57:07.576Z,2.78
2022-08-04T05:59:42.245Z,2.72
2022-08-04T06:02:10.801Z,2.70
2022-08-04T06:04:41.517Z,3.35
2022-08-04T06:07:11.243Z,3.33
2022-08-04T06:09:38.880Z,2.90
2022-08-04T06:12:26.308Z,3.33
2022-08-04T06:14:59.624Z,2.90
2022-08-04T06:19:56.569Z,3.00
2022-08-04T06:20:36.338Z,3.67
2022-08-04T06:23:12.015Z,2.97
2022-08-04T06:25:50.215Z,3.20
2022-08-04T06:28:19.784Z,3.28
2022-08-04T06:30:49.993Z,4.50
2022-08-04T06:33:27.119Z,3.08
2022-08-04T06:35:56.269Z,2.80
2022-08-04T06:38:25.684Z,2.90
2022-08-04T06:40:57.875Z,2.80
2022-08-04T06:43:29.619Z,2.70
2022-08-04T06:46:02.264Z,3.03
2022-08-04T06:48:33.170Z,2.60
2022-08-04T06:51:26.317Z,2.42
2022-08-04T06:53:50.203Z,4.10
2022-08-04T06:56:19.875Z,2.75
2022-08-04T06:58:48.541Z,2.40
2022-08-04T07:01:20.185Z,2.10
2022-08-04T07:03:50.703Z,2.20
2022-08-04T07:06:19.065Z,2.38
2022-08-04T07:08:46.630Z,2.58
2022-08-04T07:11:14.513Z,2.15
2022-08-04T07:13:45.511Z,3.55
2022-08-04T07:16:15.715Z,2.33
2022-08-04T07:18:44.031Z,3.55
2022-08-04T07:21:20.123Z,2.50
2022-08-04T07:23:51.353Z,2.03
2022-08-04T07:26:19.793Z,2.90
2022-08-04T07:28:47.566Z,2.20
2022-08-04T07:31:33.921Z,2.30
2022-08-04T07:34:21.083Z,1.85
2022-08-04T07:36:55.714Z,2.30
2022-08-04T07:39:31.411Z,2.13
2022-08-04T07:42:04.250Z,2.55
2022-08-04T07:44:35.394Z,2.13
2022-08-04T07:47:06.845Z,2.13
2022-08-04T07:49:54.476Z,2.38
2022-08-04T07:52:25.900Z,2.20
2022-08-04T07:54:54.000Z,2.05
2022-08-04T07:57:40.448Z,2.35
2022-08-04T08:00:14.245Z,1.90
2022-08-04T08:02:43.695Z,2.03
2022-08-04T08:05:19.110Z,1.90
2022-08-04T08:07:54.408Z,2.30
2022-08-04T08:10:24.332Z,2.33
2022-08-04T08:12:54.479Z,2.58
2022-08-04T08:15:22.724Z,2.35
2022-08-04T08:17:58.559Z,2.33
2022-08-04T08:20:31.874Z,2.50
2022-08-04T08:23:01.898Z,2.58
2022-08-04T08:25:33.038Z,2.78
2022-08-04T08:28:05.013Z,2.92
2022-08-04T08:30:34.701Z,2.25
2022-08-04T08:33:08.259Z,2.28
2022-08-04T08:36:09.934Z,2.30
2022-08-04T08:38:55.151Z,2.50
2022-08-04T08:45:08.553Z,2.58
2022-08-04T08:48:25.949Z,2.38
2022-08-04T08:51:24.964Z,3.25
2022-08-04T08:54:27.520Z,2.50
2022-08-04T08:57:24.203Z,2.05
2022-08-04T09:00:43.008Z,2.20
2022-08-04T09:03:47.302Z,2.17
2022-08-04T09:06:58.286Z,2.28
2022-08-04T09:10:03.482Z,2.05
2022-08-04T09:12:56.542Z,2.10
2022-08-04T09:16:08.990Z,2.13
2022-08-04T09:19:01.742Z,2.20
2022-08-04T09:21:57.823Z,1.95
2022-08-04T09:25:05.222Z,2.42
2022-08-04T09:27:56.021Z,2.20
2022-08-04T09:31:07.372Z,2.08
2022-08-04T09:33:49.164Z,2.30
2022-08-04T09:36:46.852Z,2.00
2022-08-04T09:39:33.663Z,2.17
2022-08-04T09:42:48.260Z,2.38
2022-08-04T09:45:43.143Z,2.10
2022-08-04T09:48:31.587Z,2.38
2022-08-04T09:51:00.144Z,1.90
2022-08-04T09:53:55.686Z,2.20
2022-08-04T09:56:41.904Z,2.22
2022-08-04T09:59:58.586Z,2.30
2022-08-04T10:02:32.727Z,1.95
2022-08-04T10:05:07.578Z,2.10
2022-08-04T10:08:16.215Z,1.80
2022-08-04T10:11:55.579Z,2.08
2022-08-04T10:15:09.841Z,2.33
2022-08-04T10:17:54.952Z,1.90
2022-08-04T10:21:14.891Z,2.15
2022-08-04T10:24:28.652Z,1.88
2022-08-04T10:27:11.253Z,2.38
2022-08-04T10:29:47.876Z,2.10
2022-08-04T10:32:27.221Z,2.28
2022-08-04T10:35:16.252Z,2.17
2022-08-04T10:38:30.005Z,2.20
2022-08-04T10:41:16.725Z,2.53
2022-08-04T10:44:42.256Z,2.30
2022-08-04T10:47:20.175Z,2.42
2022-08-04T10:50:01.838Z,2.53
2022-08-04T10:53:00.164Z,2.05
2022-08-04T10:56:08.018Z,2.22
2022-08-04T10:58:47.908Z,2.45
2022-08-04T11:01:59.518Z,2.40
2022-08-04T11:05:12.666Z,2.90
2022-08-04T11:07:44.863Z,2.47
2022-08-04T11:10:15.811Z,2.17
2022-08-04T11:12:44.479Z,2.30
2022-08-04T11:15:21.966Z,2.30
2022-08-04T11:17:57.668Z,2.63
2022-08-04T11:20:48.261Z,3.35
2022-08-04T11:23:18.361Z,2.63
2022-08-04T11:26:27.957Z,2.17
2022-08-04T11:29:08.045Z,2.88
2022-08-04T11:31:42.101Z,2.50
2022-08-04T11:34:30.816Z,2.25
2022-08-04T11:37:43.538Z,2.40
2022-08-04T11:40:29.460Z,2.40
2022-08-04T11:43:06.842Z,2.72
2022-08-04T11:45:51.630Z,2.38
2022-08-04T11:48:33.673Z,2.20
2022-08-04T11:51:06.804Z,2.83
2022-08-04T11:53:39.197Z,2.40
2022-08-04T11:56:16.767Z,2.28
2022-08-04T11:59:03.018Z,2.38
2022-08-04T12:02:24.272Z,2.55
2022-08-04T12:05:02.267Z,2.28
2022-08-04T12:08:25.253Z,2.20
2022-08-04T12:11:02.694Z,2.75
2022-08-04T12:13:50.559Z,2.60
2022-08-04T12:16:30.301Z,2.30
2022-08-04T12:19:03.274Z,2.50
2022-08-04T12:21:53.058Z,2.67
2022-08-04T12:24:53.285Z,2.55
2022-08-04T12:27:52.452Z,2.40
2022-08-04T12:30:58.370Z,3.15
2022-08-04T12:34:03.434Z,2.30
2022-08-04T12:36:33.548Z,2.70
2022-08-04T12:39:19.899Z,2.53
2022-08-04T12:42:28.817Z,2.63
2022-08-04T12:44:59.237Z,2.50
2022-08-04T12:47:29.533Z,2.97
2022-08-04T12:50:04.594Z,2.50
2022-08-04T12:53:04.498Z,2.45
2022-08-04T12:55:35.540Z,2.90
2022-08-04T12:58:13.884Z,2.40
2022-08-04T13:00:53.130Z,2.60
2022-08-04T13:03:24.005Z,2.55
2022-08-04T13:05:55.754Z,2.60
2022-08-04T13:08:24.179Z,2.78
2022-08-04T13:10:57.723Z,2.55
2022-08-04T13:13:28.138Z,2.42
2022-08-04T13:16:08.440Z,2.72
2022-08-04T13:18:40.226Z,2.65
2022-08-04T13:21:23.188Z,2.25
2022-08-04T13:24:21.147Z,2.58
2022-08-04T13:27:18.993Z,2.70
2022-08-04T13:30:25.378Z,2.45
2022-08-04T13:32:40.517Z,2.42
2022-08-04T13:35:09.320Z,2.50
2022-08-04T13:37:39.505Z,2.33
2022-08-04T13:40:13.081Z,2.60
2022-08-04T13:42:42.527Z,2.38
2022-08-04T13:45:11.575Z,2.47
2022-08-04T13:47:40.964Z,2.45
2022-08-04T13:50:23.683Z,2.50
2022-08-04T13:52:58.265Z,2.60
2022-08-04T13:58:19.864Z,2.50
2022-08-04T14:01:35.762Z,2.30
2022-08-04T14:04:22.496Z,2.30
2022-08-04T14:06:54.775Z,2.42
2022-08-04T14:09:35.364Z,2.30
2022-08-04T14:12:38.216Z,2.40
2022-08-04T14:15:00.486Z,2.35
2022-08-04T14:17:30.474Z,2.42
2022-08-04T14:20:03.816Z,2.30
2022-08-04T14:22:36.860Z,2.25
2022-08-04T14:25:16.615Z,2.40
2022-08-04T14:27:57.662Z,2.30
2022-08-04T14:30:35.222Z,2.63
2022-08-04T14:34:02.474Z,2.45
2022-08-04T14:36:03.886Z,2.00
2022-08-04T14:38:54.209Z,2.38
2022-08-04T14:41:34.345Z,2.20
2022-08-04T14:44:04.017Z,2.30
2022-08-04T14:46:36.645Z,2.60
2022-08-04T14:49:12.562Z,2.22
2022-08-04T14:51:44.721Z,2.53
2022-08-04T14:54:18.482Z,2.55
2022-08-04T14:56:58.841Z,2.35
2022-08-04T14:59:26.514Z,2.80
2022-08-04T15:02:00.207Z,2.70
2022-08-04T15:04:31.502Z,2.45
2022-08-04T15:07:04.717Z,2.53
2022-08-04T15:09:33.852Z,2.40
2022-08-04T15:12:04.291Z,2.25
2022-08-04T15:14:37.028Z,2.40
2022-08-04T15:17:11.925Z,2.20
2022-08-04T15:19:56.903Z,2.65
2022-08-04T15:22:24.577Z,2.50
2022-08-04T15:24:55.193Z,2.83
2022-08-04T15:27:34.784Z,2.30
2022-08-04T15:30:12.817Z,2.22
2022-08-04T15:32:48.737Z,2.15
2022-08-04T15:35:30.889Z,2.40
2022-08-04T15:38:30.891Z,2.35
2022-08-04T15:41:55.043Z,2.67
2022-08-04T15:44:51.976Z,2.70
2022-08-04T15:47:19.329Z,2.22
2022-08-04T15:50:12.562Z,2.80
2022-08-04T15:53:10.533Z,2.50
2022-08-04T15:55:43.907Z,2.60
2022-08-04T15:58:17.758Z,2.35
2022-08-04T16:00:50.727Z,2.38
2022-08-04T16:03:58.919Z,2.43
2022-08-04T16:06:23.706Z,2.63
2022-08-04T16:09:05.383Z,2.50
2022-08-04T16:11:40.369Z,2.20
2022-08-04T16:14:11.572Z,2.20
2022-08-04T16:16:39.493Z,2.50
2022-08-04T16:19:41.514Z,2.15
2022-08-04T16:22:32.266Z,2.67
2022-08-04T16:25:00.994Z,2.30
2022-08-04T16:27:43.393Z,2.30
2022-08-04T16:30:15.419Z,2.47
2022-08-04T16:32:48.693Z,2.60
2022-08-04T16:35:26.267Z,2.92
2022-08-04T16:38:12.913Z,2.80
2022-08-04T16:40:45.586Z,2.47
2022-08-04T16:43:22.532Z,2.25
2022-08-04T16:46:06.314Z,2.20
2022-08-04T16:48:37.143Z,2.30
2022-08-04T16:51:12.968Z,2.20
2022-08-04T16:53:57.964Z,2.20
2022-08-04T16:56:35.308Z,2.35
2022-08-04T16:59:12.418Z,2.38
2022-08-04T17:01:52.446Z,2.40
2022-08-04T17:04:34.659Z,2.30
2022-08-04T17:07:06.619Z,2.13
2022-08-04T17:09:33.953Z,2.65
2022-08-04T17:12:02.169Z,2.38
2022-08-04T17:14:31.530Z,2.00
2022-08-04T17:17:02.091Z,2.30
2022-08-04T17:19:29.520Z,2.22
2022-08-04T17:22:11.007Z,2.00
2022-08-04T17:24:40.793Z,2.10
2022-08-04T17:29:57.992Z,2.35
2022-08-04T17:32:25.737Z,2.13
2022-08-04T17:35:03.545Z,1.88
2022-08-04T17:37:40.211Z,2.10
2022-08-04T17:40:18.281Z,2.13
2022-08-04T17:44:04.064Z,2.20
2022-08-04T17:46:29.648Z,2.17
2022-08-04T17:49:21.067Z,2.30
2022-08-04T17:52:06.418Z,1.80
2022-08-04T17:54:40.878Z,2.00
2022-08-04T17:57:23.067Z,2.10
2022-08-04T18:00:00.244Z,2.28
2022-08-04T18:02:34.860Z,2.10
2022-08-04T18:05:12.374Z,2.38
2022-08-04T18:08:45.774Z,1.77
2022-08-04T18:13:42.843Z,2.45
2022-08-04T18:16:22.759Z,2.00
2022-08-04T18:19:11.757Z,2.35
2022-08-04T18:21:46.548Z,2.15
2022-08-04T18:24:35.950Z,1.98
2022-08-04T18:27:23.347Z,2.15
2022-08-04T18:30:33.717Z,2.58
2022-08-04T18:33:04.183Z,2.53
2022-08-04T18:36:31.718Z,3.05
2022-08-04T18:38:22.366Z,2.80
2022-08-04T18:40:53.049Z,2.15
2022-08-04T18:43:28.285Z,6.07
2022-08-04T18:46:00.362Z,5.43
2022-08-04T18:48:35.912Z,11.98
2022-08-04T18:51:10.143Z,5.05
2022-08-04T18:53:55.325Z,4.82
2022-08-04T18:56:31.557Z,3.35
2022-08-04T18:59:10.193Z,6.78
2022-08-04T19:02:17.305Z,2.83
2022-08-04T19:04:33.953Z,4.80
2022-08-04T19:08:01.527Z,5.50
2022-08-04T19:09:57.443Z,6.03
2022-08-04T19:12:28.648Z,4.43
2022-08-04T19:14:59.111Z,3.90
2022-08-04T19:17:56.844Z,3.65
2022-08-04T19:20:25.903Z,3.60
2022-08-04T19:24:28.951Z,4.78
2022-08-04T19:26:01.242Z,4.60
2022-08-04T19:28:36.243Z,4.38
2022-08-04T19:31:10.016Z,4.47
2022-08-04T19:33:59.172Z,4.32
2022-08-04T19:36:29.493Z,3.20
2022-08-04T19:39:01.632Z,4.63
2022-08-04T19:42:04.741Z,3.38
2022-08-04T19:44:23.595Z,6.72
2022-08-04T19:46:51.496Z,2.90
2022-08-04T19:50:03.044Z,3.22
2022-08-04T19:52:07.858Z,5.05
2022-08-04T19:54:35.258Z,13.55
2022-08-04T19:57:08.153Z,15.05
2022-08-04T19:59:36.265Z,3.90
2022-08-04T20:02:15.745Z,5.82
2022-08-04T20:04:43.003Z,3.20
2022-08-04T20:07:14.344Z,3.95
2022-08-04T20:09:41.962Z,8.45
2022-08-04T20:12:21.490Z,5.05
2022-08-04T20:14:49.185Z,4.85
2022-08-04T20:17:17.922Z,8.68
2022-08-04T20:19:51.010Z,7.90
2022-08-04T20:22:53.257Z,10.60
2022-08-04T20:25:36.087Z,5.35
2022-08-04T20:27:59.760Z,8.20
2022-08-04T20:30:30.032Z,8.30
2022-08-04T20:32:59.969Z,9.10
2022-08-04T20:35:29.337Z,5.32
2022-08-04T20:38:00.364Z,3.40
2022-08-04T20:40:30.457Z,3.38
2022-08-04T20:42:59.881Z,3.67
2022-08-04T20:45:55.766Z,3.88
2022-08-04T20:48:14.839Z,3.90
2022-08-04T20:50:47.941Z,3.70
2022-08-04T20:53:16.412Z,3.33
2022-08-04T20:55:55.027Z,3.40
2022-08-04T20:58:27.338Z,3.63
2022-08-04T21:00:56.042Z,3.55
2022-08-04T21:03:38.733Z,3.35
2022-08-04T21:06:11.933Z,3.95
2022-08-04T21:08:39.242Z,3.17
2022-08-04T21:11:09.098Z,3.38
2022-08-04T21:13:50.654Z,3.80
2022-08-04T21:16:54.012Z,3.78
2022-08-04T21:19:13.031Z,5.22
2022-08-04T21:21:42.285Z,4.82
2022-08-04T21:24:10.656Z,4.18
2022-08-04T21:26:42.937Z,3.65
2022-08-04T21:29:13.662Z,3.90
2022-08-04T21:31:51.007Z,3.92
2022-08-04T21:34:31.522Z,3.60
2022-08-04T21:37:09.404Z,4.03
2022-08-04T21:39:50.266Z,4.22
2022-08-04T21:42:28.411Z,4.07
2022-08-04T21:44:58.465Z,4.18
2022-08-04T21:47:25.870Z,4.20
2022-08-04T21:50:12.951Z,3.65
2022-08-04T21:52:49.129Z,4.43
2022-08-04T21:55:17.390Z,3.45
2022-08-04T21:57:46.648Z,4.72
2022-08-04T22:00:19.280Z,4.20
2022-08-04T22:02:52.930Z,3.92
2022-08-04T22:05:22.863Z,3.90
2022-08-04T22:07:52.031Z,3.33
2022-08-04T22:10:32.090Z,3.67
2022-08-04T22:13:07.047Z,4.15
2022-08-04T22:16:05.280Z,4.40
2022-08-04T22:18:24.689Z,4.45
2022-08-04T22:20:55.026Z,4.35
2022-08-04T22:23:25.141Z,3.90
2022-08-04T22:25:55.875Z,4.40
2022-08-04T22:28:28.145Z,5.47
2022-08-04T22:30:57.427Z,4.57
2022-08-04T22:33:53.901Z,4.55
2022-08-04T22:36:16.330Z,4.43
2022-08-04T22:38:51.127Z,4.40
2022-08-04T22:41:22.068Z,4.38
2022-08-04T22:44:01.358Z,4.18
2022-08-04T22:46:30.372Z,4.20
2022-08-04T22:48:58.165Z,4.45
2022-08-04T22:51:26.946Z,4.20
2022-08-04T22:53:54.541Z,3.72
2022-08-04T22:56:38.282Z,5.00
2022-08-04T22:59:10.116Z,4.95
2022-08-04T23:01:59.014Z,4.55
2022-08-04T23:04:32.769Z,4.30
2022-08-04T23:07:05.286Z,4.28
2022-08-04T23:09:50.449Z,4.07
2022-08-04T23:12:25.494Z,4.65
2022-08-04T23:14:58.284Z,4.65
2022-08-04T23:17:28.408Z,4.75
2022-08-04T23:20:00.076Z,4.10
2022-08-04T23:22:41.385Z,4.50
2022-08-04T23:25:15.890Z,4.30
2022-08-04T23:27:51.510Z,4.28
2022-08-04T23:32:57.064Z,4.20
2022-08-04T23:35:24.490Z,4.38
2022-08-04T23:37:57.361Z,4.80
2022-08-04T23:40:30.039Z,3.60
2022-08-04T23:43:12.135Z,4.63
2022-08-04T23:46:07.348Z,4.68
2022-08-04T23:48:40.208Z,4.60
2022-08-04T23:51:15.432Z,4.00
2022-08-04T23:54:01.595Z,4.50
2022-08-04T23:56:34.593Z,4.15
2022-08-04T23:59:04.106Z,4.38
